x

Pt Arena - 19nm North Of Point Arena, Ca (46014) Wave Buoy

5:50am - Mon 20th Oct 2014 All times are PDT. -7 hours from GMT.

  • Sig Wave height 10.5ft
  • Peak Period 17s
  • Average Period 10s
  • Wind
    4mph, 7mph gusts
  • Sea Temp 62°f
  • Air Temp 60°f
  • Sea Pressure 1012mb
  • Pt Arena - 19nm North Of Point Arena, Ca
  • Pt Arena - 19nm North Of Point Arena, Ca

More Historic Weather Station data

Upgrade to MSW Pro to gain access to the past 30 days of data for over 8000 Wavebouys and Weather Stations around the globe.

Join Pro

Comparision Forecast

View Surf forecast
   
Mon 10/20 5:50am 10.5ft 17s 10s 4 7 mph 1012mb 62f 60f
4:50am  -   -   -  2
mph
- - 60f
3:50am 10ft 17s 9s 9 18 mph 1011.3mb 62f 60f
2:50am 9ft 17s 8s 20 25 mph 1010.6mb 62f 62f
1:50am 7.5ft 19s 7s 20 25 mph 1010.7mb 62f 62f
12:50am 7ft 10s 8s 18 22 mph 1011.1mb 62f 62f
Sun 10/19 11:50pm  -   -   -  16 20 mph 1011.2mb 62f 62f
10:50pm 7ft 10s 8s 16 18 mph 1011.3mb 62f 62f
9:50pm 7ft 10s  -  18 20 mph 1011mb 62f 61f
7:50pm  -   -   -  16 20 mph 1011.2mb 62f 62f
6:50pm 5.5ft 10s 7s 13 16 mph 1011.2mb 62f 62f
5:50pm 5ft 11s 7s 16 18 mph 1011.1mb 62f 62f
4:50pm 5ft 11s 8s 16 18 mph 1011.2mb 62f 63f
3:50pm 4.5ft 11s 7s 11 13 mph 1011.8mb 62f 63f
2:50pm 5ft 8s 8s 13 16 mph 1011.9mb 62f 63f
1:50pm 4.5ft 11s 7s 9 11 mph 1012.4mb 62f 63f
12:50pm 5ft 11s 8s 9 11 mph 1013.1mb 62f 62f
11:50am 5ft 9s 8s 11 13 mph 1013.3mb 62f 62f
10:50am 5.5ft 11s 8s 9 11 mph 1013.3mb 61f 62f
9:50am 6ft 9s 8s 7 9 mph 1013.1mb 61f 62f
8:50am 6ft 11s 8s 9 11 mph 1012.6mb 61f 62f
6:50am 6.5ft 11s 8s 9 13 mph 1012.1mb 60f 61f
5:50am 8ft 9s 8s 7
mph
1012.1mb 61f 60f
4:50am 7ft 11s 8s 4 7 mph 1012.1mb 61f 60f
3:50am 7.5ft 11s 9s 7 9 mph 1012.2mb 61f 61f
1:50am 7ft 11s 8s 7 9 mph 1012.8mb 61f 61f
12:50am 7ft 11s 8s 4 7 mph 1012.7mb 61f 61f
Sat 10/18 11:50pm 7ft 11s 8s 4 7 mph 1012.7mb 62f 60f
10:50pm 7.5ft 11s 9s 4 7 mph 1012.9mb 61f 60f
9:50pm 6.5ft 11s 8s 2 4 mph 1013mb 62f 61f
8:50pm 8ft 11s 8s  -  4 mph 1013mb 62f 61f
7:50pm 8ft 12s 8s  -  2 mph 1012.9mb 61f 61f
6:50pm 7.5ft 11s 8s 2 4 mph 1013mb 62f 61f
5:50pm 7.5ft 12s 8s 4 7 mph 1013.1mb 61f 62f
4:50pm 8ft 12s 8s 2 4 mph 1013.5mb 62f 62f
3:50pm 8.5ft 12s 8s  -  2 mph 1013.7mb 61f 63f
2:50pm  -   -   -  9
mph
- - 62f
1:50pm  -   -   -  2
mph
- - -
12:50pm 8ft 11s 8s 4 7 mph 1015.1mb 59f 61f
11:50am  -   -   -  4 7 mph 1015.5mb 59f 61f
10:50am 8.5ft 11s 8s 2
mph
1015.8mb 59f 60f
9:50am 8ft 12s 8s 4 7 mph 1015.8mb 59f 60f
8:50am 9ft 11s 9s 7 9 mph 1015.5mb 60f 60f
7:50am 9.5ft 10s 8s 7 9 mph 1015mb 60f 60f
6:50am  -   -   -  4 9 mph 1014.8mb 60f 60f
5:50am  -   -   -  11 13 mph 1014.5mb 60f 60f
4:50am 9ft 11s 8s 13 16 mph 1014.3mb 60f 60f
3:50am  -   -   -  13 16 mph 1014.4mb 60f 61f
2:50am  -   -   -  18 20 mph 1014.3mb 60f 61f
1:50am  -   -   -  16 18 mph 1014.3mb 60f 61f
12:50am 9ft 11s 7s 16 20 mph 1013.9mb 60f 61f
Fri 10/17 11:50pm 8.5ft 12s 7s 18 22 mph 1013.9mb 60f 61f
10:50pm  -   -   -  20
mph
1013.6mb 60f 62f
9:50pm 9ft 12s 7s 18 22 mph 1013.4mb 60f 61f
7:50pm  -   -   -  16 20 mph 1012.6mb 60f 60f
6:50pm 9ft 11s 7s 16 22 mph 1012.2mb 60f 61f
5:50pm 9ft 11s 7s 13 16 mph 1012.2mb 60f 60f
4:50pm  -   -   -  22 25 mph 1011.7mb 60f 61f
3:50pm 8ft 11s 6s 25 29 mph 1011.3mb 60f 60f
2:50pm 8.5ft 6s 6s 22 27 mph 1011.2mb 60f 62f
1:50pm 7.5ft 11s 6s 29 36 mph 1011.2mb 60f 62f
12:50pm 6.5ft 6s 6s 25 29 mph 1011.5mb 59f 62f
11:50am  -   -   -  20 22 mph 1012mb 59f 61f
10:50am  -   -   -  20 25 mph 1012.3mb 60f 61f
9:50am 6ft 11s 5s 20 25 mph 1012.2mb 60f 61f
8:50am 5.5ft 9s 5s 20 25 mph 1012.2mb 60f 61f
7:50am 5ft 10s 5s 20 22 mph 1011.2mb 61f 61f
6:50am 5ft 9s 5s 20
mph
1011.4mb 61f 60f
3:50am  -   -   -  13 18 mph 1012mb 60f 59f
1:50am 4.5ft 12s 7s 13 18 mph 1012.6mb 58f 59f
12:50am  -   -   -  11
mph
- - -
Thu 10/16 11:00pm 5ft 13s 8s 11 16 mph 1012.9mb 58f 60f
10:50pm 6.5ft 13s 8s 13 16 mph 1012.8mb 57f 59f
9:50pm 6ft 12s 8s 13 16 mph 1012.9mb 57f 60f
8:50pm 7ft 14s 8s 13 16 mph 1013.2mb 57f 59f
7:50pm  -   -   -  11 16 mph 1013.4mb 57f 60f
6:50pm 9.5ft 14s 9s 13 16 mph 1013.5mb 57f 59f
5:50pm 8.5ft 14s 9s 13 16 mph 1013.8mb 58f 59f
4:50pm 9ft 14s 9s 11 16 mph 1014.4mb 58f 59f
3:50pm  -   -   -  9 13 mph 1014.7mb 58f 59f
2:50pm 9ft 14s 10s 9 11 mph 1014.9mb 58f 59f